Time;durP1;ratioP1;P1;durP2;ratioP2;P2;SDS_P1;SDS_P2;PMS_P1;PMS_P2;Temp;Humidity;BMP_temperature;BMP_pressure;BME280_temperature;BME280_humidity;BME280_pressure;Samples;Min_cycle;Max_cycle;Signal;HPM_P1;HPM_P2
2024/01/01 00:01:27;;;;;;;45.10;31.40;;;8.40;99.90;;;;;;5011383;28;20053;-68
2024/01/01 00:03:54;;;;;;;47.03;32.50;;;8.50;99.90;;;;;;5011438;28;20054;-67
2024/01/01 00:06:20;;;;;;;31.17;21.10;;;8.50;99.90;;;;;;5011206;28;20133;-67
2024/01/01 00:08:47;;;;;;;34.20;23.20;;;8.40;99.90;;;;;;5010610;28;20057;-67
2024/01/01 00:11:13;;;;;;;24.95;17.88;;;8.40;99.90;;;;;;5011311;28;20038;-67
2024/01/01 00:13:40;;;;;;;28.17;18.02;;;8.40;99.90;;;;;;5011023;28;20081;-67
2024/01/01 00:16:08;;;;;;;31.83;21.35;;;8.40;99.90;;;;;;5010978;28;20049;-67
2024/01/01 00:18:34;;;;;;;28.65;20.83;;;8.40;99.90;;;;;;4994118;28;20128;-67
2024/01/01 00:21:02;;;;;;;33.13;21.75;;;8.50;99.90;;;;;;5010983;28;20062;-67
2024/01/01 00:23:28;;;;;;;24.92;14.68;;;8.40;99.90;;;;;;5010806;28;20065;-67
2024/01/01 00:25:55;;;;;;;20.08;11.88;;;8.50;99.90;;;;;;5011154;28;20053;-67
2024/01/01 00:28:21;;;;;;;17.98;10.13;;;8.50;99.90;;;;;;4994636;28;20386;-67
2024/01/01 00:30:48;;;;;;;22.55;15.93;;;8.50;99.90;;;;;;4994511;28;20444;-67
2024/01/01 00:33:16;;;;;;;17.98;13.45;;;8.40;99.90;;;;;;5011192;28;20327;-68
2024/01/01 00:35:42;;;;;;;22.77;12.30;;;8.40;99.90;;;;;;4994278;28;20052;-67
2024/01/01 00:38:09;;;;;;;21.83;13.48;;;8.50;99.90;;;;;;5010606;28;20068;-67
2024/01/01 00:40:37;;;;;;;24.92;16.48;;;8.50;99.90;;;;;;5009773;28;20046;-67
2024/01/01 00:43:03;;;;;;;24.58;13.43;;;8.40;99.90;;;;;;5011647;28;20050;-67
2024/01/01 00:45:30;;;;;;;26.70;16.23;;;8.50;99.90;;;;;;5010775;28;20053;-67
2024/01/01 00:47:59;;;;;;;29.95;20.15;;;8.50;99.90;;;;;;5011079;28;20061;-67
2024/01/01 00:50:25;;;;;;;36.65;26.80;;;8.40;99.90;;;;;;5009969;28;20060;-67
2024/01/01 00:52:52;;;;;;;28.65;19.15;;;8.40;99.90;;;;;;5010407;28;20068;-67
2024/01/01 00:55:18;;;;;;;24.70;16.73;;;8.40;99.90;;;;;;5010567;28;20386;-68
2024/01/01 00:57:44;;;;;;;23.48;14.02;;;8.30;99.90;;;;;;4993609;28;20058;-68
2024/01/01 01:00:13;;;;;;;25.67;17.75;;;8.30;99.90;;;;;;5009108;28;20049;-67
2024/01/01 01:02:41;;;;;;;28.60;19.48;;;8.20;99.90;;;;;;5010615;28;20455;-67
2024/01/01 01:05:07;;;;;;;30.80;17.85;;;8.20;99.90;;;;;;4993884;28;20483;-68
2024/01/01 01:07:35;;;;;;;29.50;19.83;;;8.20;99.90;;;;;;5010114;28;20322;-68
2024/01/01 01:10:08;;;;;;;32.55;22.58;;;8.20;99.90;;;;;;5009179;28;20050;-68
2024/01/01 01:12:35;;;;;;;28.20;17.15;;;8.20;99.90;;;;;;5010967;28;20493;-67
2024/01/01 01:15:01;;;;;;;24.13;15.93;;;8.10;99.90;;;;;;4993699;28;20052;-67
2024/01/01 01:17:27;;;;;;;26.73;17.58;;;8.20;99.90;;;;;;5010050;28;20061;-67
2024/01/01 01:19:54;;;;;;;28.02;19.17;;;8.20;99.90;;;;;;5009261;28;20045;-68
2024/01/01 01:22:20;;;;;;;27.13;17.85;;;8.10;99.90;;;;;;5009912;28;20101;-67
2024/01/01 01:24:46;;;;;;;27.67;17.70;;;8.20;99.90;;;;;;5009902;28;20057;-68
2024/01/01 01:27:12;;;;;;;27.10;16.75;;;8.10;99.90;;;;;;5009914;28;20065;-67
2024/01/01 01:29:40;;;;;;;20.33;15.10;;;8.20;99.90;;;;;;5009267;28;20746;-67
2024/01/01 01:32:09;;;;;;;24.92;16.00;;;8.10;99.90;;;;;;4993349;28;20049;-67
2024/01/01 01:34:35;;;;;;;20.27;14.35;;;8.10;99.90;;;;;;5009465;28;20057;-68
2024/01/01 01:37:03;;;;;;;21.80;14.82;;;8.10;99.90;;;;;;5009742;28;20046;-68
2024/01/01 01:39:29;;;;;;;22.92;15.43;;;8.10;99.90;;;;;;4992882;28;20476;-67
2024/01/01 01:41:57;;;;;;;22.95;14.65;;;8.10;99.90;;;;;;5009465;28;20057;-67
2024/01/01 01:44:25;;;;;;;22.88;15.20;;;8.10;99.90;;;;;;4993061;28;20057;-67
2024/01/01 01:46:52;;;;;;;20.50;14.23;;;8.10;99.90;;;;;;5009828;28;20045;-68
2024/01/01 01:49:18;;;;;;;19.52;13.80;;;8.10;99.90;;;;;;5008839;28;20065;-67
2024/01/01 01:51:48;;;;;;;21.35;15.30;;;8.10;99.90;;;;;;4993169;28;20045;-67
2024/01/01 01:54:16;;;;;;;20.15;14.35;;;8.10;99.90;;;;;;5009599;28;20050;-68
2024/01/01 01:56:42;;;;;;;20.98;14.57;;;8.00;99.90;;;;;;5009353;28;20437;-68
2024/01/01 01:59:09;;;;;;;22.05;14.00;;;8.00;99.90;;;;;;5008561;28;20533;-68
2024/01/01 02:01:36;;;;;;;18.60;11.73;;;8.10;99.90;;;;;;4992989;28;20054;-67
2024/01/01 02:04:02;;;;;;;15.18;10.38;;;8.00;99.90;;;;;;5008992;28;20049;-67
2024/01/01 02:06:29;;;;;;;16.70;9.85;;;8.00;99.90;;;;;;5008699;28;20062;-68
2024/01/01 02:08:55;;;;;;;15.10;10.35;;;8.00;99.90;;;;;;5008339;28;20053;-68
2024/01/01 02:11:25;;;;;;;14.07;9.65;;;8.00;99.90;;;;;;5009130;28;20054;-68
2024/01/01 02:13:51;;;;;;;13.45;8.88;;;7.90;99.90;;;;;;5008855;28;20050;-67
2024/01/01 02:16:17;;;;;;;14.75;8.50;;;7.90;99.90;;;;;;5008955;28;20454;-67
2024/01/01 02:18:47;;;;;;;16.27;9.30;;;7.90;99.90;;;;;;5008554;28;20046;-67
2024/01/01 02:21:16;;;;;;;15.55;9.18;;;7.80;99.90;;;;;;5008560;28;20050;-66
2024/01/01 02:23:43;;;;;;;12.60;8.05;;;7.70;99.90;;;;;;5008872;28;20050;-67
2024/01/01 02:26:17;;;;;;;13.70;8.15;;;7.70;99.90;;;;;;5009107;28;20053;-67
2024/01/01 02:28:44;;;;;;;14.32;7.07;;;7.70;99.90;;;;;;5007822;28;20068;-67
2024/01/01 02:31:18;;;;;;;13.25;7.80;;;7.60;99.90;;;;;;5008846;28;20065;-67
2024/01/01 02:33:45;;;;;;;11.68;6.78;;;7.50;99.90;;;;;;5009879;28;20125;-67
2024/01/01 02:36:11;;;;;;;9.57;5.82;;;7.50;99.90;;;;;;5009310;28;20363;-67
2024/01/01 02:38:37;;;;;;;12.73;6.10;;;7.50;99.90;;;;;;5008331;28;20373;-67
2024/01/01 02:41:03;;;;;;;13.23;6.57;;;7.50;99.90;;;;;;5008881;28;20471;-67
2024/01/01 02:43:30;;;;;;;9.23;5.47;;;7.50;99.90;;;;;;5008895;28;20057;-67
2024/01/01 02:45:56;;;;;;;11.07;5.18;;;7.50;99.90;;;;;;5008846;28;20066;-67
2024/01/01 02:48:22;;;;;;;11.32;5.05;;;7.50;99.90;;;;;;5008197;28;20054;-68
2024/01/01 02:50:49;;;;;;;8.68;4.57;;;7.50;99.90;;;;;;5009185;28;20445;-67
2024/01/01 02:53:15;;;;;;;12.40;5.00;;;7.40;99.90;;;;;;4992400;28;20053;-67
2024/01/01 02:55:41;;;;;;;10.38;4.55;;;7.40;99.90;;;;;;5008949;28;20046;-67
2024/01/01 02:58:08;;;;;;;10.95;4.50;;;7.40;99.90;;;;;;5009319;28;20168;-66
2024/01/01 03:00:34;;;;;;;8.80;4.35;;;7.30;99.90;;;;;;5007780;28;20057;-67
2024/01/01 03:03:01;;;;;;;9.80;4.30;;;7.30;99.90;;;;;;5008663;28;20065;-67
2024/01/01 03:05:27;;;;;;;12.60;4.88;;;7.30;99.90;;;;;;5008514;28;20050;-67
2024/01/01 03:07:53;;;;;;;11.02;5.07;;;7.30;99.90;;;;;;5008514;28;20065;-67
2024/01/01 03:10:20;;;;;;;7.93;3.75;;;7.30;99.90;;;;;;5008051;28;20465;-67
2024/01/01 03:12:47;;;;;;;9.70;3.85;;;7.30;99.90;;;;;;5008708;28;20104;-67
2024/01/01 03:15:14;;;;;;;7.50;3.35;;;7.20;99.90;;;;;;5008288;28;20053;-67
2024/01/01 03:17:41;;;;;;;6.63;3.30;;;7.30;99.90;;;;;;5008930;28;20046;-67
2024/01/01 03:20:09;;;;;;;10.40;3.95;;;7.30;99.90;;;;;;4991525;28;20092;-67
2024/01/01 03:22:35;;;;;;;6.60;3.38;;;7.30;99.90;;;;;;5010777;28;20053;-67
2024/01/01 03:25:03;;;;;;;9.75;4.20;;;7.30;99.90;;;;;;5012077;28;20054;-67
2024/01/01 03:27:30;;;;;;;5.03;2.92;;;7.20;99.90;;;;;;5012135;28;20061;-67
2024/01/01 03:29:56;;;;;;;5.93;3.05;;;7.30;99.90;;;;;;5011410;28;20278;-67
2024/01/01 03:32:24;;;;;;;5.57;2.78;;;7.20;99.90;;;;;;5011544;28;20065;-68
2024/01/01 03:34:50;;;;;;;6.68;2.55;;;7.20;99.90;;;;;;5011769;28;20058;-66
2024/01/01 03:37:18;;;;;;;6.50;2.55;;;7.20;99.90;;;;;;4995327;28;20068;-67
2024/01/01 03:39:44;;;;;;;5.45;2.70;;;7.20;99.90;;;;;;5011296;28;20081;-68
2024/01/01 03:42:10;;;;;;;6.70;2.78;;;7.10;99.90;;;;;;5013180;28;20134;-67
2024/01/01 03:44:37;;;;;;;5.70;3.03;;;7.20;99.90;;;;;;5011697;28;20050;-67
2024/01/01 03:47:03;;;;;;;5.82;2.40;;;7.10;99.90;;;;;;5011826;28;20046;-67
2024/01/01 03:49:29;;;;;;;7.88;3.22;;;7.10;99.90;;;;;;4994721;28;20050;-67
2024/01/01 03:51:57;;;;;;;7.55;3.20;;;7.10;99.90;;;;;;5011911;28;20077;-67
2024/01/01 03:54:23;;;;;;;5.43;2.75;;;7.10;99.90;;;;;;5011476;28;20053;-67
2024/01/01 03:56:50;;;;;;;7.13;2.50;;;7.10;99.90;;;;;;5012596;28;20061;-67
2024/01/01 03:59:16;;;;;;;6.45;2.58;;;7.10;99.90;;;;;;5011349;28;20038;-67
2024/01/01 04:01:42;;;;;;;7.13;2.92;;;7.10;99.90;;;;;;5011796;28;20058;-68
2024/01/01 04:04:09;;;;;;;6.72;2.33;;;7.20;99.90;;;;;;4995156;28;20472;-67
2024/01/01 04:06:35;;;;;;;9.35;2.58;;;7.10;99.90;;;;;;5012296;28;20069;-67
2024/01/01 04:09:02;;;;;;;6.70;2.60;;;7.10;99.90;;;;;;5011215;28;20046;-68
2024/01/01 04:11:30;;;;;;;4.18;2.45;;;7.00;99.90;;;;;;5011407;28;20054;-67
2024/01/01 04:14:00;;;;;;;8.18;2.72;;;7.10;99.90;;;;;;4994861;28;20045;-67
2024/01/01 04:16:26;;;;;;;5.97;2.75;;;7.10;99.90;;;;;;5012252;28;20050;-67
2024/01/01 04:18:52;;;;;;;7.93;2.80;;;7.10;99.90;;;;;;5010523;28;20402;-66
2024/01/01 04:21:20;;;;;;;9.13;3.42;;;7.10;99.90;;;;;;5010967;28;20084;-67
2024/01/01 04:23:49;;;;;;;6.18;2.58;;;7.10;99.90;;;;;;5011075;28;20057;-67
2024/01/01 04:26:16;;;;;;;10.38;3.53;;;7.00;99.90;;;;;;5011404;28;20451;-67
2024/01/01 04:28:42;;;;;;;8.40;3.30;;;7.00;99.90;;;;;;4994084;28;20122;-67
2024/01/01 04:31:08;;;;;;;6.53;3.30;;;7.10;99.90;;;;;;5010746;28;20054;-67
2024/01/01 04:33:36;;;;;;;7.07;3.40;;;7.10;99.90;;;;;;5010938;28;20058;-67
2024/01/01 04:36:03;;;;;;;7.85;3.13;;;7.10;99.90;;;;;;5010688;28;20410;-68
2024/01/01 04:38:30;;;;;;;7.53;2.85;;;7.10;99.90;;;;;;4993894;28;20049;-67
2024/01/01 04:40:56;;;;;;;8.63;2.78;;;7.10;99.90;;;;;;4991502;28;20038;-67
2024/01/01 04:43:24;;;;;;;6.28;2.45;;;7.10;99.90;;;;;;4991195;28;20046;-67
2024/01/01 04:45:50;;;;;;;11.07;3.38;;;7.20;99.90;;;;;;4974858;28;20060;-67
2024/01/01 04:48:17;;;;;;;12.18;2.95;;;7.20;99.90;;;;;;4974800;28;20057;-67
2024/01/01 04:50:43;;;;;;;8.40;2.90;;;7.20;99.90;;;;;;5009680;28;20081;-67
2024/01/01 04:53:11;;;;;;;6.32;3.00;;;7.20;99.90;;;;;;5010651;28;20064;-67
2024/01/01 04:55:37;;;;;;;9.02;3.00;;;7.20;99.90;;;;;;5010531;28;20441;-67
2024/01/01 04:58:04;;;;;;;10.43;3.58;;;7.20;99.90;;;;;;4993424;28;20053;-66
2024/01/01 05:00:30;;;;;;;9.93;3.47;;;7.10;99.90;;;;;;5009886;28;20050;-67
2024/01/01 05:02:56;;;;;;;9.57;2.92;;;7.20;99.90;;;;;;5010726;28;20050;-66
2024/01/01 05:05:23;;;;;;;8.10;3.75;;;7.10;99.90;;;;;;5011263;28;20053;-67
2024/01/01 05:07:52;;;;;;;11.00;3.58;;;7.20;99.90;;;;;;4994076;28;20064;-67
2024/01/01 05:10:18;;;;;;;10.95;3.70;;;7.20;99.90;;;;;;4993375;28;20049;-66
2024/01/01 05:12:44;;;;;;;9.23;3.97;;;7.20;99.90;;;;;;5010316;28;20390;-68
2024/01/01 05:15:14;;;;;;;7.47;3.28;;;7.20;99.90;;;;;;5009971;28;20061;-68
2024/01/01 05:17:40;;;;;;;13.45;3.13;;;7.20;99.90;;;;;;5009998;28;20058;-68
2024/01/01 05:20:07;;;;;;;8.63;3.17;;;7.20;99.90;;;;;;5009420;28;20050;-68
2024/01/01 05:22:33;;;;;;;7.95;3.22;;;7.20;99.90;;;;;;5010349;28;20049;-68
2024/01/01 05:25:00;;;;;;;9.75;2.90;;;7.10;99.90;;;;;;5010105;28;20466;-68
2024/01/01 05:27:27;;;;;;;11.15;3.30;;;7.20;99.90;;;;;;5010580;28;20042;-68
2024/01/01 05:29:53;;;;;;;10.88;3.40;;;7.10;99.90;;;;;;5009685;28;20093;-67
2024/01/01 05:32:19;;;;;;;9.82;3.85;;;7.10;99.90;;;;;;5010337;28;20490;-67
2024/01/01 05:34:46;;;;;;;10.85;3.22;;;7.20;99.90;;;;;;5010188;28;20046;-68
2024/01/01 05:37:14;;;;;;;9.15;3.67;;;7.10;99.90;;;;;;4993420;28;20065;-67
2024/01/01 05:39:40;;;;;;;7.43;2.88;;;7.20;99.90;;;;;;5008878;28;20445;-67
2024/01/01 05:42:07;;;;;;;7.32;3.00;;;7.20;99.90;;;;;;5010216;28;20069;-68
2024/01/01 05:44:33;;;;;;;9.27;2.80;;;7.20;99.90;;;;;;5010538;28;20060;-67
2024/01/01 05:47:01;;;;;;;10.30;3.40;;;7.20;99.90;;;;;;5009958;28;20058;-68
2024/01/01 05:49:27;;;;;;;6.50;2.80;;;7.20;99.90;;;;;;5008860;28;20056;-67
2024/01/01 05:51:53;;;;;;;8.52;3.17;;;7.20;99.90;;;;;;5009781;28;20120;-67
2024/01/01 05:54:19;;;;;;;8.07;2.83;;;7.10;99.90;;;;;;5009770;28;20382;-67
2024/01/01 05:56:46;;;;;;;7.43;3.03;;;7.20;99.90;;;;;;5009288;28;20046;-68
2024/01/01 05:59:12;;;;;;;9.98;4.10;;;7.10;99.90;;;;;;5008952;28;20057;-67
2024/01/01 06:01:40;;;;;;;9.95;3.30;;;7.10;99.90;;;;;;5009587;28;20058;-68
2024/01/01 06:04:06;;;;;;;5.93;2.60;;;7.10;99.90;;;;;;5009177;28;20061;-68
2024/01/01 06:06:34;;;;;;;6.13;2.88;;;7.10;99.90;;;;;;5009553;28;20057;-68
2024/01/01 06:09:00;;;;;;;6.88;2.90;;;7.10;99.90;;;;;;5008645;28;20046;-68
2024/01/01 06:11:28;;;;;;;8.23;3.20;;;7.10;99.90;;;;;;4992995;28;20054;-68
2024/01/01 06:13:55;;;;;;;5.80;2.70;;;7.10;99.90;;;;;;5009251;28;20061;-67
2024/01/01 06:16:24;;;;;;;6.97;3.40;;;7.10;99.90;;;;;;5008982;28;20053;-67
2024/01/01 06:18:50;;;;;;;7.10;2.85;;;7.10;99.90;;;;;;4976410;28;20149;-67
2024/01/01 06:21:17;;;;;;;7.00;2.95;;;7.10;99.90;;;;;;5009030;28;20053;-67
2024/01/01 06:23:45;;;;;;;12.55;2.90;;;7.10;99.90;;;;;;5008964;28;20149;-67
2024/01/01 06:26:12;;;;;;;8.95;3.35;;;7.10;99.90;;;;;;5009324;28;20390;-67
2024/01/01 06:28:38;;;;;;;7.68;3.13;;;7.10;99.90;;;;;;5008128;28;20057;-67
2024/01/01 06:31:05;;;;;;;9.88;3.33;;;7.10;99.90;;;;;;5008682;28;20057;-67
2024/01/01 06:33:31;;;;;;;10.75;3.70;;;7.10;99.90;;;;;;5008938;28;20068;-67
2024/01/01 06:35:58;;;;;;;7.13;3.83;;;7.10;99.90;;;;;;5009669;28;20046;-66
2024/01/01 06:38:24;;;;;;;6.93;3.10;;;7.10;99.90;;;;;;5008515;28;20046;-67
2024/01/01 06:40:50;;;;;;;8.15;3.55;;;7.10;99.90;;;;;;5008683;28;20482;-67
2024/01/01 06:43:16;;;;;;;9.38;3.30;;;7.20;99.90;;;;;;5009032;28;20103;-67
2024/01/01 06:45:43;;;;;;;8.25;2.90;;;7.10;99.90;;;;;;5008877;28;20061;-68
2024/01/01 06:48:11;;;;;;;8.23;3.13;;;7.10;99.90;;;;;;5008278;28;20058;-67
2024/01/01 06:50:38;;;;;;;6.85;3.33;;;7.10;99.90;;;;;;5008622;28;20050;-67
2024/01/01 06:53:04;;;;;;;6.20;2.75;;;7.10;99.90;;;;;;5009735;28;20477;-67
2024/01/01 06:55:31;;;;;;;5.40;2.33;;;7.10;99.90;;;;;;5008796;28;20050;-68
2024/01/01 06:58:00;;;;;;;5.10;1.95;;;7.00;99.90;;;;;;5010768;28;20478;-67
2024/01/01 07:00:26;;;;;;;6.65;2.33;;;7.00;99.90;;;;;;4995934;28;20470;-67
2024/01/01 07:02:54;;;;;;;4.13;1.80;;;7.00;99.90;;;;;;4996580;28;20063;-67
2024/01/01 07:05:23;;;;;;;3.97;2.28;;;7.00;99.90;;;;;;5012279;28;20501;-68
2024/01/01 07:07:50;;;;;;;8.27;2.53;;;7.00;99.90;;;;;;5012598;28;20061;-68
2024/01/01 07:10:17;;;;;;;8.48;3.08;;;7.00;99.90;;;;;;4995926;28;20060;-67
2024/01/01 07:12:44;;;;;;;9.07;3.17;;;7.00;99.90;;;;;;5012445;28;20058;-67
2024/01/01 07:15:11;;;;;;;6.05;3.10;;;7.10;99.90;;;;;;5012591;28;20050;-68
2024/01/01 07:17:39;;;;;;;9.60;3.47;;;7.00;99.90;;;;;;5012205;28;20056;-66
2024/01/01 07:20:06;;;;;;;10.38;3.90;;;7.10;99.90;;;;;;5011977;28;20050;-67
2024/01/01 07:22:34;;;;;;;10.00;3.65;;;7.10;99.90;;;;;;5012340;28;20489;-67
2024/01/01 07:25:02;;;;;;;9.77;3.70;;;7.10;99.90;;;;;;5013291;28;20072;-68
2024/01/01 07:27:28;;;;;;;11.40;3.83;;;7.20;99.90;;;;;;5012234;28;20398;-67
2024/01/01 07:29:55;;;;;;;9.10;4.07;;;7.10;99.90;;;;;;5011148;28;20064;-67
2024/01/01 07:32:22;;;;;;;9.48;3.67;;;7.20;99.90;;;;;;5012029;28;20050;-67
2024/01/01 07:34:48;;;;;;;10.32;4.05;;;7.10;99.90;;;;;;5012608;28;20050;-67
2024/01/01 07:37:14;;;;;;;9.05;3.35;;;7.10;99.90;;;;;;5011841;28;20438;-67
2024/01/01 07:39:41;;;;;;;8.65;3.90;;;7.10;99.90;;;;;;5012438;28;20140;-68
2024/01/01 07:42:08;;;;;;;9.55;3.70;;;7.10;99.90;;;;;;5012947;28;20061;-67
2024/01/01 07:44:34;;;;;;;10.88;3.78;;;7.10;99.90;;;;;;4995367;28;20065;-67
2024/01/01 07:47:02;;;;;;;13.13;4.05;;;7.10;99.90;;;;;;5011929;28;20373;-67
2024/01/01 07:49:28;;;;;;;9.35;3.42;;;7.10;99.90;;;;;;5011406;28;20407;-68
2024/01/01 07:51:54;;;;;;;7.45;3.47;;;7.20;99.90;;;;;;5011395;28;20060;-66
2024/01/01 07:54:21;;;;;;;10.13;3.47;;;7.10;99.90;;;;;;5011807;28;20065;-67
2024/01/01 07:56:49;;;;;;;11.27;4.10;;;7.20;99.90;;;;;;5011342;28;20046;-67
2024/01/01 07:59:15;;;;;;;7.95;3.35;;;7.20;99.90;;;;;;4994613;28;20041;-68
2024/01/01 08:01:44;;;;;;;8.27;2.92;;;7.20;99.90;;;;;;5012403;28;20360;-67
2024/01/01 08:04:11;;;;;;;6.80;2.67;;;7.20;99.90;;;;;;5011156;28;20482;-67
2024/01/01 08:06:38;;;;;;;6.13;3.22;;;7.20;99.90;;;;;;5011355;28;20057;-68
2024/01/01 08:09:04;;;;;;;6.68;2.92;;;7.20;99.90;;;;;;5010367;28;20069;-68
2024/01/01 08:11:32;;;;;;;9.10;3.25;;;7.20;99.90;;;;;;5011395;28;20458;-68
2024/01/01 08:13:59;;;;;;;10.55;3.50;;;7.20;99.90;;;;;;5011229;28;20089;-67
2024/01/01 08:16:25;;;;;;;9.93;3.33;;;7.20;99.90;;;;;;4995066;28;20046;-68
2024/01/01 08:18:53;;;;;;;11.48;3.08;;;7.10;99.90;;;;;;4994553;28;20482;-67
2024/01/01 08:21:21;;;;;;;10.88;3.00;;;7.10;99.90;;;;;;4995175;28;20046;-67
2024/01/01 08:23:49;;;;;;;8.35;2.78;;;7.10;99.90;;;;;;5011289;28;20057;-68
2024/01/01 08:26:15;;;;;;;11.00;3.13;;;7.10;99.90;;;;;;5011093;28;20489;-68
2024/01/01 08:28:42;;;;;;;10.60;2.90;;;7.10;99.90;;;;;;5010301;28;20138;-67
2024/01/01 08:31:08;;;;;;;9.05;3.10;;;7.20;99.90;;;;;;5011224;28;20462;-67
2024/01/01 08:33:34;;;;;;;7.22;2.45;;;7.20;99.90;;;;;;4994476;28;20049;-68
2024/01/01 08:36:01;;;;;;;8.13;2.70;;;7.20;99.90;;;;;;5010920;28;20046;-67
2024/01/01 08:38:27;;;;;;;6.70;2.72;;;7.20;99.90;;;;;;5010294;28;20402;-68
2024/01/01 08:40:53;;;;;;;7.95;3.00;;;7.30;99.90;;;;;;5010666;28;20053;-68
2024/01/01 08:43:19;;;;;;;10.30;3.30;;;7.30;99.90;;;;;;5011916;28;20381;-67
2024/01/01 08:45:46;;;;;;;7.35;2.53;;;7.30;99.90;;;;;;5010926;28;20049;-68
2024/01/01 08:48:13;;;;;;;6.75;2.83;;;7.40;99.90;;;;;;5010282;28;20353;-67
2024/01/01 08:50:39;;;;;;;8.27;2.90;;;7.40;99.90;;;;;;4994308;28;20447;-67
2024/01/01 08:53:05;;;;;;;7.90;2.95;;;7.40;99.90;;;;;;5010703;28;20038;-67
2024/01/01 08:55:31;;;;;;;9.98;3.00;;;7.50;99.90;;;;;;4994354;28;20141;-68
2024/01/01 08:57:58;;;;;;;9.20;3.05;;;7.50;99.90;;;;;;5009532;28;20095;-67
2024/01/01 09:00:26;;;;;;;9.05;2.97;;;7.50;99.90;;;;;;5010362;28;20042;-68
2024/01/01 09:02:52;;;;;;;6.22;2.80;;;7.30;99.90;;;;;;5010566;28;20054;-68
2024/01/01 09:05:22;;;;;;;12.18;3.45;;;7.30;99.90;;;;;;5010367;28;20056;-68
2024/01/01 09:07:49;;;;;;;7.05;2.75;;;7.30;99.90;;;;;;5010107;28;20046;-67
2024/01/01 09:10:19;;;;;;;11.25;3.20;;;7.30;99.90;;;;;;4994192;28;20120;-68
2024/01/01 09:12:45;;;;;;;10.00;3.45;;;7.30;99.90;;;;;;5010592;28;20171;-68
2024/01/01 09:15:15;;;;;;;9.10;3.05;;;7.40;99.90;;;;;;5009970;28;20048;-67
2024/01/01 09:17:44;;;;;;;8.77;2.78;;;7.40;99.90;;;;;;5009727;28;20050;-67
2024/01/01 09:20:11;;;;;;;6.68;2.38;;;7.40;99.90;;;;;;5009157;28;20050;-68
2024/01/01 09:22:38;;;;;;;6.53;2.70;;;7.50;99.90;;;;;;5010109;28;20053;-68
2024/01/01 09:25:07;;;;;;;10.43;2.65;;;7.40;99.90;;;;;;5009917;28;20152;-67
2024/01/01 09:27:33;;;;;;;10.40;3.15;;;7.50;99.90;;;;;;5009736;28;20057;-67
2024/01/01 09:29:59;;;;;;;12.95;2.83;;;7.50;99.90;;;;;;5009455;28;20088;-68
2024/01/01 09:32:27;;;;;;;9.98;2.50;;;7.40;99.90;;;;;;5009916;28;20056;-67
2024/01/01 09:34:54;;;;;;;7.30;2.40;;;7.40;99.90;;;;;;5009714;28;20069;-67
2024/01/01 09:37:21;;;;;;;10.38;2.60;;;7.40;99.90;;;;;;5009916;28;20049;-67
2024/01/01 09:39:47;;;;;;;6.82;2.83;;;7.40;99.90;;;;;;5009232;28;20390;-68
2024/01/01 09:42:15;;;;;;;9.25;2.50;;;7.30;99.90;;;;;;5009907;28;20060;-67
2024/01/01 09:44:49;;;;;;;7.25;2.05;;;7.30;99.90;;;;;;4993289;28;20046;-67
2024/01/01 09:47:16;;;;;;;7.70;2.15;;;7.50;99.90;;;;;;5010370;28;20057;-67
2024/01/01 09:49:43;;;;;;;6.78;2.30;;;7.40;99.90;;;;;;5009188;28;20068;-67
2024/01/01 09:52:15;;;;;;;9.25;1.83;;;7.30;99.90;;;;;;4993316;28;20357;-68
2024/01/01 09:54:41;;;;;;;5.28;2.25;;;7.40;99.90;;;;;;5009583;28;20368;-68
2024/01/01 09:57:08;;;;;;;8.23;2.30;;;7.40;99.90;;;;;;5010192;28;20097;-67
2024/01/01 09:59:39;;;;;;;6.15;2.20;;;7.40;99.90;;;;;;5009080;28;20575;-67
2024/01/01 10:02:07;;;;;;;6.25;2.30;;;7.40;99.90;;;;;;5009488;28;20050;-67
2024/01/01 10:04:37;;;;;;;6.65;2.28;;;7.40;99.90;;;;;;5009162;28;20041;-68
2024/01/01 10:07:03;;;;;;;8.95;2.35;;;7.50;99.90;;;;;;5009333;28;20050;-67
2024/01/01 10:09:30;;;;;;;6.78;2.00;;;7.40;99.90;;;;;;5008610;28;20056;-67
2024/01/01 10:12:07;;;;;;;9.15;2.33;;;7.40;99.90;;;;;;4992809;28;20446;-67
2024/01/01 10:14:44;;;;;;;9.27;2.40;;;7.40;99.90;;;;;;5009092;28;20290;-67
2024/01/01 10:17:12;;;;;;;7.15;2.20;;;7.40;99.90;;;;;;5009129;28;20050;-67
2024/01/01 10:19:52;;;;;;;5.43;1.70;;;7.40;99.90;;;;;;5008209;28;20050;-68
2024/01/01 10:22:19;;;;;;;6.15;1.70;;;7.30;99.90;;;;;;4992692;28;20046;-67
2024/01/01 10:24:47;;;;;;;7.72;1.80;;;7.30;99.90;;;;;;5010420;28;20049;-67
2024/01/01 10:27:20;;;;;;;6.47;1.50;;;7.40;99.90;;;;;;5008861;28;20069;-67
2024/01/01 10:29:47;;;;;;;6.57;1.80;;;7.40;99.90;;;;;;5008670;28;20390;-67
2024/01/01 10:32:17;;;;;;;5.57;1.70;;;7.40;99.90;;;;;;5009010;28;20058;-67
2024/01/01 10:34:48;;;;;;;4.82;1.95;;;7.50;99.90;;;;;;5008917;28;20050;-68
2024/01/01 10:37:16;;;;;;;7.95;2.00;;;7.60;99.90;;;;;;5008694;28;20045;-67
2024/01/01 10:39:44;;;;;;;6.80;2.15;;;7.50;99.90;;;;;;4992102;28;20054;-67
2024/01/01 10:42:10;;;;;;;6.75;1.50;;;7.50;99.90;;;;;;4992655;28;20420;-67
2024/01/01 10:44:38;;;;;;;7.05;1.40;;;7.50;99.90;;;;;;5009048;28;20451;-67
2024/01/01 10:47:09;;;;;;;5.03;1.60;;;7.50;99.90;;;;;;5025458;28;20054;-68
2024/01/01 10:49:41;;;;;;;8.45;1.75;;;7.60;99.90;;;;;;5008420;28;20128;-67
2024/01/01 10:52:19;;;;;;;7.47;1.73;;;7.50;99.90;;;;;;5008486;28;20065;-68
2024/01/01 10:55:05;;;;;;;6.65;1.90;;;7.50;99.90;;;;;;4993103;28;20084;-68
2024/01/01 10:57:49;;;;;;;5.60;1.70;;;7.60;99.90;;;;;;4991709;28;20045;-67
2024/01/01 11:00:41;;;;;;;5.25;1.65;;;7.60;99.90;;;;;;4992867;28;20057;-67
2024/01/01 11:03:13;;;;;;;7.25;1.92;;;7.80;99.90;;;;;;5009051;28;20389;-68
2024/01/01 11:05:40;;;;;;;10.80;2.25;;;7.80;99.90;;;;;;4992481;28;20345;-68
2024/01/01 11:08:07;;;;;;;8.00;2.20;;;7.90;99.90;;;;;;5007923;28;20053;-68
2024/01/01 11:10:42;;;;;;;7.57;2.40;;;7.90;99.90;;;;;;5009509;28;20108;-68
2024/01/01 11:13:12;;;;;;;9.48;2.50;;;7.90;99.90;;;;;;4992455;28;20069;-67
2024/01/01 11:15:40;;;;;;;8.00;2.45;;;7.90;99.90;;;;;;4992361;28;20050;-67
2024/01/01 11:18:34;;;;;;;8.88;2.85;;;7.90;99.90;;;;;;5007912;28;20046;-68
2024/01/01 11:21:02;;;;;;;7.15;2.42;;;7.90;99.90;;;;;;5008218;28;20068;-68
2024/01/01 11:23:47;;;;;;;5.75;1.90;;;7.90;99.90;;;;;;5008550;28;20050;-67
2024/01/01 11:26:23;;;;;;;8.60;2.38;;;7.90;99.90;;;;;;4992431;28;20378;-68
2024/01/01 11:28:57;;;;;;;9.35;2.13;;;7.90;99.90;;;;;;4991944;28;20068;-68
2024/01/01 11:31:25;;;;;;;13.25;2.70;;;8.00;99.90;;;;;;4988608;28;20053;-67
2024/01/01 11:34:18;;;;;;;9.13;2.22;;;8.00;99.90;;;;;;4988665;28;20054;-68
2024/01/01 11:36:45;;;;;;;9.15;2.50;;;8.00;99.90;;;;;;5003082;28;20555;-68
2024/01/01 11:39:11;;;;;;;5.80;2.20;;;8.10;99.90;;;;;;4991154;28;20053;-68
2024/01/01 11:41:37;;;;;;;6.65;2.20;;;8.10;99.90;;;;;;4991931;28;20057;-68
2024/01/01 11:44:15;;;;;;;7.93;2.40;;;8.20;99.90;;;;;;5011302;28;20050;-68
2024/01/01 11:46:42;;;;;;;;;;;8.20;99.90;;;;;;4996496;28;20072;-68
2024/01/01 11:49:09;;;;;;;10.10;2.08;;;8.30;99.90;;;;;;5011524;28;20326;-68
2024/01/01 11:51:51;;;;;;;8.90;1.70;;;8.30;99.90;;;;;;4995316;28;20075;-68
2024/01/01 11:54:21;;;;;;;8.27;1.80;;;8.40;99.90;;;;;;5012246;28;20383;-68
2024/01/01 11:56:59;;;;;;;8.20;1.58;;;8.40;99.90;;;;;;5011409;28;20046;-67
2024/01/01 11:59:29;;;;;;;7.28;2.42;;;8.40;99.90;;;;;;5011096;28;20390;-67
2024/01/01 12:01:56;;;;;;;6.65;1.70;;;8.30;99.90;;;;;;5011699;28;20056;-67
2024/01/01 12:04:23;;;;;;;8.45;2.00;;;8.30;99.90;;;;;;5011480;28;20042;-68
2024/01/01 12:06:52;;;;;;;9.57;2.03;;;8.30;99.90;;;;;;5011520;28;20071;-66
2024/01/01 12:09:20;;;;;;;8.68;2.28;;;8.20;99.90;;;;;;4994817;28;20054;-68
2024/01/01 12:11:47;;;;;;;7.18;1.80;;;8.20;99.90;;;;;;4995386;28;20422;-67
2024/01/01 12:14:14;;;;;;;6.28;2.33;;;8.20;99.90;;;;;;5011471;28;20446;-68
2024/01/01 12:16:42;;;;;;;6.05;1.75;;;8.30;99.90;;;;;;4995056;28;20054;-68
2024/01/01 12:19:19;;;;;;;7.72;1.77;;;8.30;99.90;;;;;;4994353;28;20161;-68
2024/01/01 12:21:45;;;;;;;9.95;2.53;;;8.30;99.90;;;;;;4994831;28;20141;-68
2024/01/01 12:24:14;;;;;;;6.43;2.35;;;8.30;99.90;;;;;;5011127;28;20089;-68
2024/01/01 12:26:46;;;;;;;5.85;1.80;;;8.30;99.90;;;;;;5011185;28;20474;-68
2024/01/01 12:29:15;;;;;;;7.18;1.60;;;8.30;99.90;;;;;;4994083;28;20370;-68
2024/01/01 12:31:46;;;;;;;7.90;1.77;;;8.50;99.90;;;;;;5011007;28;20232;-67
2024/01/01 12:34:18;;;;;;;8.30;1.80;;;8.30;99.90;;;;;;5010909;28;20054;-68
2024/01/01 12:36:47;;;;;;;8.25;2.47;;;8.40;99.90;;;;;;5011142;28;20045;-68
2024/01/01 12:39:16;;;;;;;11.18;1.63;;;8.40;99.90;;;;;;4994019;28;20064;-68
2024/01/01 12:41:43;;;;;;;7.68;1.60;;;8.50;99.90;;;;;;5011390;28;20402;-68
2024/01/01 12:44:10;;;;;;;5.53;1.50;;;8.60;99.90;;;;;;5010685;28;20061;-68
2024/01/01 12:46:36;;;;;;;5.22;1.83;;;8.60;99.90;;;;;;5010986;28;20057;-68
2024/01/01 12:49:05;;;;;;;9.73;1.77;;;8.70;99.90;;;;;;5009921;28;20061;-67
2024/01/01 12:51:32;;;;;;;6.82;1.58;;;8.80;99.90;;;;;;5010764;28;20046;-68
2024/01/01 12:54:03;;;;;;;7.80;1.85;;;8.80;99.90;;;;;;5009384;28;20458;-68
2024/01/01 12:56:29;;;;;;;7.65;1.70;;;8.80;99.90;;;;;;5010412;28;20061;-68